Terminal Aerodrome Forecast
Issued by NWS Twin Cities, MN

Home | Current Version | Previous Version | Graphics & Text | Print | Product List | Glossary On
Versions: 1 2 3 4 5 6 7 8 9 10 11 12 13 14
000
FTUS43 KMPX 211738
TAFEAU
TAF
KEAU 211738Z 2118/2218 23014G20KT P6SM VCSH OVC015
     FM220100 26010KT P6SM OVC015
     FM220400 25010KT P6SM -DZ OVC015
     FM220700 25008KT P6SM VCSH OVC015
     FM221500 26010KT P6SM BKN025=

USA.gov is the U.S. government's official web portal to all federal, state and local government web resources and services.